Time;durP1;ratioP1;P1;durP2;ratioP2;P2;SDS_P1;SDS_P2;PMS_P1;PMS_P2;Temp;Humidity;BMP_temperature;BMP_pressure;BME280_temperature;BME280_humidity;BME280_pressure;Samples;Min_cycle;Max_cycle;Signal;HPM_P1;HPM_P2
2022/11/17 00:02:06;;;;;;;11.43;5.65;;;6.60;99.90;;;;;;5086512;28;20528;-73
2022/11/17 00:04:32;;;;;;;9.43;4.70;;;6.70;99.90;;;;;;5086307;28;20036;-75
2022/11/17 00:06:58;;;;;;;12.68;5.00;;;6.70;99.90;;;;;;5094691;28;20054;-73
2022/11/17 00:09:24;;;;;;;9.00;4.15;;;6.60;99.90;;;;;;5089403;28;20032;-73
2022/11/17 00:14:35;;;;;;;7.32;4.53;;;6.70;99.90;;;;;;5087163;28;20036;-74
2022/11/17 00:17:03;;;;;;;8.57;4.78;;;6.60;99.90;;;;;;5086207;28;20025;-73
2022/11/17 00:22:14;;;;;;;7.65;3.97;;;6.60;99.90;;;;;;5097706;28;20059;-73
2022/11/17 00:24:39;;;;;;;7.20;3.45;;;6.60;99.90;;;;;;5096548;28;20044;-74
2022/11/17 00:27:14;;;;;;;6.85;2.60;;;6.50;99.90;;;;;;5104949;28;20036;-74
2022/11/17 00:29:40;;;;;;;5.30;2.92;;;6.60;99.90;;;;;;5088431;28;20059;-72
2022/11/17 00:34:55;;;;;;;14.88;3.70;;;6.60;99.90;;;;;;5085377;28;20047;-75
2022/11/17 00:37:21;;;;;;;6.50;3.47;;;6.60;99.90;;;;;;5085057;28;20032;-73
2022/11/17 00:39:47;;;;;;;6.90;2.65;;;6.50;99.90;;;;;;5085531;28;20021;-73
2022/11/17 00:42:13;;;;;;;3.17;1.95;;;6.50;99.90;;;;;;5085622;28;20095;-75
2022/11/17 00:44:38;;;;;;;6.43;3.42;;;6.50;99.90;;;;;;5086676;28;20045;-76
2022/11/17 00:47:04;;;;;;;6.63;3.17;;;6.50;99.90;;;;;;5104687;28;20399;-76
2022/11/17 00:49:30;;;;;;;3.85;1.83;;;6.50;99.90;;;;;;5106221;28;20039;-75
2022/11/17 00:51:56;;;;;;;6.60;3.20;;;6.50;99.90;;;;;;5097743;28;20036;-74
2022/11/17 00:54:22;;;;;;;3.88;2.10;;;6.50;99.90;;;;;;5085325;28;20117;-75
2022/11/17 00:56:48;;;;;;;4.90;1.85;;;6.50;99.90;;;;;;5085316;28;20054;-76
2022/11/17 00:59:14;;;;;;;3.10;1.80;;;6.50;99.90;;;;;;5085077;28;20020;-76
2022/11/17 01:01:41;;;;;;;4.88;2.22;;;6.40;99.90;;;;;;5085482;28;20024;-74
2022/11/17 01:04:07;;;;;;;4.38;1.92;;;6.50;99.90;;;;;;5085094;28;20025;-76
2022/11/17 01:06:38;;;;;;;4.45;1.92;;;6.40;99.90;;;;;;5087520;28;20483;-75
2022/11/17 01:09:08;;;;;;;4.40;2.67;;;6.50;99.90;;;;;;5097590;28;20032;-76
2022/11/17 01:11:34;;;;;;;6.50;3.03;;;6.40;99.90;;;;;;5090527;28;20039;-76
2022/11/17 01:14:00;;;;;;;4.57;2.70;;;6.50;99.90;;;;;;5104103;28;20035;-78
2022/11/17 01:16:27;;;;;;;3.90;1.95;;;6.50;99.90;;;;;;5105437;28;20035;-75
2022/11/17 01:18:53;;;;;;;5.15;1.65;;;6.50;99.90;;;;;;5105370;28;20024;-73
2022/11/17 01:21:23;;;;;;;5.50;2.72;;;6.50;99.90;;;;;;5104547;28;20086;-73
2022/11/17 01:23:54;;;;;;;4.63;2.70;;;6.50;99.90;;;;;;5089582;28;20033;-74
2022/11/17 01:26:25;;;;;;;8.02;2.85;;;6.50;99.90;;;;;;5084632;28;20048;-76
2022/11/17 01:28:52;;;;;;;4.45;2.65;;;6.50;99.90;;;;;;5084555;28;20028;-75
2022/11/17 01:31:21;;;;;;;6.07;2.75;;;6.50;99.90;;;;;;5084671;28;20052;-73
2022/11/17 01:33:47;;;;;;;6.18;3.05;;;6.40;99.90;;;;;;5084431;28;20155;-74
2022/11/17 01:36:19;;;;;;;7.57;3.05;;;6.50;99.90;;;;;;5089777;28;20032;-73
2022/11/17 01:38:44;;;;;;;8.45;2.92;;;6.40;99.90;;;;;;5101818;28;20115;-76
2022/11/17 01:41:20;;;;;;;7.18;2.92;;;6.40;99.90;;;;;;5084336;28;20032;-76
2022/11/17 01:43:50;;;;;;;5.45;2.72;;;6.40;99.90;;;;;;5084767;28;20055;-73
2022/11/17 01:46:32;;;;;;;5.88;2.80;;;6.40;99.90;;;;;;5084052;28;20052;-74
2022/11/17 01:49:12;;;;;;;6.97;2.70;;;6.40;99.90;;;;;;5084224;28;20024;-75
2022/11/17 01:51:44;;;;;;;5.88;3.15;;;6.40;99.90;;;;;;5084518;28;20128;-75
2022/11/17 01:54:14;;;;;;;6.57;3.00;;;6.40;99.90;;;;;;5082963;28;20040;-73
2022/11/17 01:56:45;;;;;;;3.45;1.95;;;6.40;99.90;;;;;;5088249;28;20047;-75
2022/11/17 01:59:22;;;;;;;5.82;2.55;;;6.40;99.90;;;;;;5090523;28;20038;-75
2022/11/17 02:01:55;;;;;;;5.00;2.80;;;6.40;99.90;;;;;;5101191;28;20024;-75
2022/11/17 02:04:31;;;;;;;4.35;2.75;;;6.40;99.90;;;;;;5102339;28;20040;-73
2022/11/17 02:07:08;;;;;;;3.15;2.17;;;6.40;99.90;;;;;;5084399;28;20036;-74
2022/11/17 02:09:37;;;;;;;5.95;3.30;;;6.50;99.90;;;;;;5082804;28;20098;-78
2022/11/17 02:12:04;;;;;;;5.72;3.53;;;6.50;99.90;;;;;;5084640;28;20031;-76
2022/11/17 02:14:31;;;;;;;7.20;3.28;;;6.40;99.90;;;;;;5084415;28;20020;-73
2022/11/17 02:16:56;;;;;;;5.00;3.13;;;6.40;99.90;;;;;;5089257;28;20031;-77
2022/11/17 02:19:25;;;;;;;9.30;4.15;;;6.40;99.90;;;;;;5094139;28;20017;-75
2022/11/17 02:22:12;;;;;;;5.95;2.83;;;6.50;99.90;;;;;;5096546;28;20448;-76
2022/11/17 02:24:57;;;;;;;8.52;4.00;;;6.40;99.90;;;;;;5089048;28;20040;-73
2022/11/17 02:27:32;;;;;;;4.93;2.65;;;6.40;99.90;;;;;;5088965;28;20028;-74
2022/11/17 02:29:57;;;;;;;7.13;3.55;;;6.40;99.90;;;;;;5096663;28;20057;-72
2022/11/17 02:32:53;;;;;;;8.25;4.25;;;6.40;99.90;;;;;;5099528;28;20052;-72
2022/11/17 02:35:45;;;;;;;8.88;4.72;;;6.40;99.90;;;;;;5093440;28;20036;-73
2022/11/17 02:38:49;;;;;;;6.93;3.60;;;6.40;99.90;;;;;;5044081;28;20036;-73
2022/11/17 02:41:34;;;;;;;8.70;3.42;;;6.40;99.90;;;;;;5098461;28;20372;-73
2022/11/17 02:44:15;;;;;;;9.15;4.90;;;6.40;99.90;;;;;;5104037;28;20464;-73
2022/11/17 02:46:48;;;;;;;8.45;3.97;;;6.40;99.90;;;;;;5101198;28;20028;-76
2022/11/17 02:49:34;;;;;;;6.28;3.28;;;6.40;99.90;;;;;;5093077;28;20028;-74
2022/11/17 02:52:01;;;;;;;6.63;3.10;;;6.40;99.90;;;;;;5100231;28;20040;-74
2022/11/17 02:54:30;;;;;;;10.30;5.22;;;6.40;99.90;;;;;;5085348;28;20119;-74
2022/11/17 02:56:55;;;;;;;8.70;4.57;;;6.40;99.90;;;;;;5083500;28;20028;-74
2022/11/17 02:59:27;;;;;;;5.22;2.78;;;6.40;99.90;;;;;;5086954;28;20040;-72
2022/11/17 03:02:17;;;;;;;10.27;3.78;;;6.40;99.90;;;;;;5102298;28;20032;-73
2022/11/17 03:04:58;;;;;;;5.97;3.30;;;6.40;99.90;;;;;;5099297;28;20036;-74
2022/11/17 03:07:57;;;;;;;14.13;5.05;;;6.40;99.90;;;;;;5087690;28;20353;-73
2022/11/17 03:10:34;;;;;;;10.27;5.22;;;6.40;99.90;;;;;;5087433;28;20025;-75
2022/11/17 03:13:29;;;;;;;10.88;5.28;;;6.40;99.90;;;;;;5086153;28;20149;-74
2022/11/17 03:16:08;;;;;;;;;;;6.30;99.90;;;;;;5056650;28;20044;-74
2022/11/17 03:18:48;;;;;;;8.75;4.35;;;6.40;99.90;;;;;;5096367;28;19904;-73
2022/11/17 03:21:27;;;;;;;11.93;6.57;;;6.40;99.90;;;;;;5107225;28;20048;-72
2022/11/17 03:24:07;;;;;;;14.35;5.38;;;6.40;99.90;;;;;;5107673;28;20036;-74
2022/11/17 03:26:37;;;;;;;9.57;4.78;;;6.30;99.90;;;;;;5107248;28;20054;-73
2022/11/17 03:29:09;;;;;;;12.13;5.88;;;6.30;99.90;;;;;;5106422;28;20125;-74
2022/11/17 03:31:36;;;;;;;13.80;6.47;;;6.30;99.90;;;;;;5107767;28;20024;-75
2022/11/17 03:34:08;;;;;;;14.35;7.15;;;6.30;99.90;;;;;;5107456;28;20036;-74
2022/11/17 03:36:38;;;;;;;12.50;6.15;;;6.30;99.90;;;;;;5106950;28;20035;-74
2022/11/17 03:39:32;;;;;;;11.55;5.28;;;6.30;99.90;;;;;;5107322;28;20091;-72
2022/11/17 03:42:05;;;;;;;11.57;5.28;;;6.30;99.90;;;;;;5104681;28;20118;-77
2022/11/17 03:44:35;;;;;;;12.45;6.47;;;6.20;99.90;;;;;;5106454;28;20044;-75
2022/11/17 03:47:03;;;;;;;12.52;5.57;;;6.20;99.90;;;;;;5104312;28;20158;-72
2022/11/17 03:49:36;;;;;;;17.38;5.47;;;6.20;99.90;;;;;;5107344;28;20032;-74
2022/11/17 03:52:03;;;;;;;12.73;6.07;;;6.30;99.90;;;;;;5094551;28;20032;-71
2022/11/17 03:54:29;;;;;;;15.27;6.28;;;6.20;99.90;;;;;;5088547;28;20052;-73
2022/11/17 03:57:01;;;;;;;15.63;6.93;;;6.20;99.90;;;;;;5091770;28;20025;-71
2022/11/17 03:59:36;;;;;;;14.98;8.05;;;6.20;99.90;;;;;;5085257;28;20568;-73
2022/11/17 04:02:05;;;;;;;17.27;8.18;;;6.20;99.90;;;;;;5086441;28;20025;-75
2022/11/17 04:05:04;;;;;;;13.63;6.38;;;6.20;99.90;;;;;;5086556;28;20036;-74
2022/11/17 04:07:16;;;;;;;18.63;7.82;;;6.20;99.90;;;;;;5085730;28;20029;-73
2022/11/17 04:09:41;;;;;;;20.05;7.93;;;6.20;99.90;;;;;;5084715;28;20032;-71
2022/11/17 04:17:36;;;;;;;11.75;6.15;;;6.20;99.90;;;;;;5086591;28;20043;-74
2022/11/17 04:20:01;;;;;;;12.50;6.35;;;6.20;99.90;;;;;;5086373;28;20037;-72
2022/11/17 04:22:27;;;;;;;16.25;7.53;;;6.20;99.90;;;;;;5085755;28;20083;-76
2022/11/17 04:24:52;;;;;;;16.48;7.93;;;6.20;99.90;;;;;;5085953;28;20500;-72
2022/11/17 04:30:03;;;;;;;20.05;9.02;;;6.10;99.90;;;;;;5086170;28;20491;-75
2022/11/17 04:32:28;;;;;;;21.02;9.38;;;6.10;99.90;;;;;;5086517;28;20409;-76
2022/11/17 04:34:54;;;;;;;22.27;9.50;;;6.10;99.90;;;;;;5084901;28;20029;-77
2022/11/17 04:37:19;;;;;;;19.27;9.10;;;6.10;99.90;;;;;;5085136;28;20037;-72
2022/11/17 04:39:45;;;;;;;14.50;7.28;;;6.10;99.90;;;;;;5084480;28;20028;-76
2022/11/17 04:42:11;;;;;;;15.20;6.75;;;6.00;99.90;;;;;;5085660;28;20028;-71
2022/11/17 04:44:37;;;;;;;17.08;8.80;;;6.00;99.90;;;;;;5085230;28;20032;-76
2022/11/17 04:47:02;;;;;;;22.48;11.50;;;5.90;99.90;;;;;;5086102;28;20032;-70
2022/11/17 04:49:30;;;;;;;16.83;8.50;;;6.00;99.90;;;;;;5085534;28;20100;-78
2022/11/17 04:51:56;;;;;;;17.88;7.60;;;5.90;99.90;;;;;;5085341;28;20032;-76
2022/11/17 04:54:23;;;;;;;17.70;9.50;;;6.00;99.90;;;;;;5085316;28;20469;-76
2022/11/17 04:56:49;;;;;;;26.95;10.73;;;5.90;99.90;;;;;;5084782;28;20084;-76
2022/11/17 04:59:15;;;;;;;13.90;7.03;;;5.90;99.90;;;;;;5093365;28;20035;-74
2022/11/17 05:01:41;;;;;;;15.70;8.00;;;5.90;99.90;;;;;;5083992;28;20058;-75
2022/11/17 05:04:10;;;;;;;21.85;11.10;;;5.90;99.90;;;;;;5092655;28;20020;-76
2022/11/17 05:06:43;;;;;;;18.52;9.48;;;5.80;99.90;;;;;;5104062;28;20024;-79
2022/11/17 05:09:15;;;;;;;21.02;9.55;;;5.80;99.90;;;;;;5103939;28;20052;-75
2022/11/17 05:14:28;;;;;;;14.80;6.85;;;5.80;99.90;;;;;;5105849;28;20082;-73
2022/11/17 05:17:08;;;;;;;21.65;10.55;;;5.90;99.90;;;;;;5104906;28;20028;-74
2022/11/17 05:19:44;;;;;;;26.20;11.38;;;5.80;99.90;;;;;;5096893;28;20024;-75
2022/11/17 05:24:57;;;;;;;21.60;10.50;;;5.80;99.90;;;;;;5093718;28;20165;-74
2022/11/17 05:27:23;;;;;;;21.70;10.65;;;5.70;99.90;;;;;;5090263;28;20032;-72
2022/11/17 05:29:49;;;;;;;21.75;8.85;;;5.80;99.90;;;;;;5083408;28;20414;-75
2022/11/17 05:32:15;;;;;;;17.75;8.18;;;5.80;99.90;;;;;;5091670;28;20032;-73
2022/11/17 05:34:41;;;;;;;10.55;5.68;;;5.70;99.90;;;;;;5083416;28;20028;-73
2022/11/17 05:37:06;;;;;;;24.45;9.90;;;5.70;99.90;;;;;;5103031;28;20032;-74
2022/11/17 05:39:32;;;;;;;20.67;10.60;;;5.70;99.90;;;;;;5098335;28;20052;-73
2022/11/17 05:41:58;;;;;;;21.40;10.52;;;5.70;99.90;;;;;;5101599;28;20028;-75
2022/11/17 05:44:23;;;;;;;21.15;9.68;;;5.70;99.90;;;;;;5104964;28;20024;-71
2022/11/17 05:46:49;;;;;;;21.45;9.93;;;5.70;99.90;;;;;;5086089;28;20028;-73
2022/11/17 05:49:14;;;;;;;20.33;7.75;;;5.70;99.90;;;;;;5085350;28;20079;-74
2022/11/17 05:51:40;;;;;;;29.73;9.93;;;5.70;99.90;;;;;;5084177;28;20056;-73
2022/11/17 05:54:05;;;;;;;22.17;10.20;;;5.70;99.90;;;;;;5085290;28;20028;-74
2022/11/17 05:56:31;;;;;;;23.80;11.55;;;5.90;99.90;;;;;;5084406;28;20032;-72
2022/11/17 05:59:16;;;;;;;26.77;12.23;;;5.70;99.90;;;;;;5094608;28;20028;-70
2022/11/17 06:01:49;;;;;;;26.08;12.52;;;5.70;99.90;;;;;;5100013;28;20551;-75
2022/11/17 06:04:17;;;;;;;22.70;10.55;;;5.80;99.90;;;;;;5088128;28;20053;-73
2022/11/17 06:06:45;;;;;;;26.90;13.05;;;5.70;99.90;;;;;;5084718;28;20031;-70
2022/11/17 06:09:11;;;;;;;18.60;9.00;;;5.70;99.90;;;;;;5088678;28;20068;-71
2022/11/17 06:11:37;;;;;;;27.85;13.75;;;5.50;99.90;;;;;;5092748;28;20050;-74
2022/11/17 06:14:03;;;;;;;22.00;10.45;;;5.60;99.90;;;;;;5087122;28;20112;-71
2022/11/17 06:16:34;;;;;;;30.70;14.55;;;5.50;99.90;;;;;;5089656;28;20051;-76
2022/11/17 06:19:08;;;;;;;28.85;13.52;;;5.50;99.90;;;;;;5091247;28;20027;-77
2022/11/17 06:21:35;;;;;;;29.55;14.02;;;5.40;99.90;;;;;;5084360;28;20067;-74
2022/11/17 06:24:02;;;;;;;31.30;13.65;;;5.30;99.90;;;;;;5085856;28;20028;-76
2022/11/17 06:26:28;;;;;;;31.05;13.43;;;5.30;99.90;;;;;;5087069;28;20050;-79
2022/11/17 06:28:55;;;;;;;32.53;14.57;;;5.30;99.90;;;;;;5084388;28;20024;-75
2022/11/17 06:31:21;;;;;;;21.52;9.30;;;5.30;99.90;;;;;;5082445;28;20058;-78
2022/11/17 06:33:47;;;;;;;28.35;13.48;;;5.30;99.90;;;;;;5093579;28;20450;-76
2022/11/17 06:36:13;;;;;;;28.48;13.35;;;5.20;99.90;;;;;;5096657;28;20681;-77
2022/11/17 06:38:38;;;;;;;27.45;13.00;;;5.20;99.90;;;;;;5091979;28;20051;-76
2022/11/17 06:41:05;;;;;;;30.77;14.73;;;5.20;99.90;;;;;;5095247;28;20050;-76
2022/11/17 06:43:31;;;;;;;29.83;15.20;;;5.10;99.90;;;;;;5095843;28;20115;-75
2022/11/17 06:46:02;;;;;;;28.60;13.18;;;5.10;99.90;;;;;;5097384;28;20043;-76
2022/11/17 06:48:28;;;;;;;16.17;7.43;;;5.10;99.90;;;;;;5089384;28;21664;-74
2022/11/17 06:50:54;;;;;;;27.50;13.90;;;5.20;99.90;;;;;;5092790;28;20641;-78
2022/11/17 06:53:25;;;;;;;28.88;14.60;;;5.10;99.90;;;;;;5093199;28;20033;-74
2022/11/17 06:56:07;;;;;;;27.90;14.13;;;5.10;99.90;;;;;;5092766;28;20062;-76
2022/11/17 06:58:34;;;;;;;30.35;12.32;;;5.00;99.90;;;;;;5092535;28;20029;-74
2022/11/17 07:01:08;;;;;;;27.35;12.73;;;5.00;99.90;;;;;;5089547;28;20025;-78
2022/11/17 07:03:36;;;;;;;21.67;9.70;;;5.00;99.90;;;;;;5084892;28;20047;-76
2022/11/17 07:06:04;;;;;;;31.17;13.82;;;5.00;99.90;;;;;;5091690;28;20044;-80
2022/11/17 07:08:30;;;;;;;33.63;14.35;;;5.00;99.90;;;;;;5096184;28;20062;-75
2022/11/17 07:11:05;;;;;;;33.88;14.85;;;5.10;99.90;;;;;;5096578;28;20049;-78
2022/11/17 07:13:31;;;;;;;;;;;5.00;99.90;;;;;;5094648;28;20032;-75
2022/11/17 07:16:03;;;;;;;25.58;12.13;;;5.00;99.90;;;;;;5100414;28;19904;-78
2022/11/17 07:18:29;;;;;;;37.50;15.88;;;5.10;99.90;;;;;;5089063;28;20050;-76
2022/11/17 07:21:05;;;;;;;26.98;11.93;;;5.00;99.90;;;;;;5092097;28;20073;-79
2022/11/17 07:23:32;;;;;;;33.45;15.32;;;5.00;99.90;;;;;;5096920;28;20108;-76
2022/11/17 07:25:59;;;;;;;26.45;12.32;;;5.00;99.90;;;;;;5095435;28;20048;-75
2022/11/17 07:28:25;;;;;;;25.45;12.15;;;5.00;99.90;;;;;;5089681;28;20034;-74
2022/11/17 07:30:51;;;;;;;24.50;9.20;;;5.00;99.90;;;;;;5089216;28;20118;-77
2022/11/17 07:33:17;;;;;;;35.78;16.23;;;5.00;99.90;;;;;;5083444;28;20465;-77
2022/11/17 07:35:42;;;;;;;33.97;17.08;;;5.00;99.90;;;;;;5087797;28;20040;-77
2022/11/17 07:38:08;;;;;;;31.10;14.00;;;5.00;99.90;;;;;;5087262;28;20024;-79
2022/11/17 07:40:34;;;;;;;36.10;16.83;;;5.00;99.90;;;;;;5094540;28;20040;-77
2022/11/17 07:43:00;;;;;;;32.92;16.70;;;4.90;99.90;;;;;;5089357;28;20085;-76
2022/11/17 07:45:27;;;;;;;36.90;17.17;;;4.90;99.90;;;;;;5090099;28;20038;-76
2022/11/17 07:47:57;;;;;;;26.45;11.98;;;4.90;99.90;;;;;;5089286;28;20032;-76
2022/11/17 07:50:25;;;;;;;36.30;17.13;;;4.90;99.90;;;;;;5089158;28;20056;-74
2022/11/17 07:52:52;;;;;;;39.40;17.92;;;5.00;99.90;;;;;;5088643;28;20088;-76
2022/11/17 07:55:18;;;;;;;39.53;17.98;;;4.90;99.90;;;;;;5091552;28;20024;-76
2022/11/17 07:57:44;;;;;;;34.00;15.30;;;4.80;99.90;;;;;;5094709;28;20036;-75
2022/11/17 08:00:11;;;;;;;29.52;13.20;;;4.80;99.90;;;;;;5089924;28;20059;-75
2022/11/17 08:02:38;;;;;;;32.40;14.48;;;4.80;99.90;;;;;;5096203;28;20031;-76
2022/11/17 08:05:04;;;;;;;35.83;17.15;;;4.80;99.90;;;;;;5089478;28;20066;-76
2022/11/17 08:07:30;;;;;;;37.95;17.58;;;4.70;99.90;;;;;;5090646;28;20024;-74
2022/11/17 08:09:55;;;;;;;26.25;10.40;;;4.70;99.90;;;;;;5100624;28;20357;-73
2022/11/17 08:12:22;;;;;;;25.00;11.48;;;4.70;99.90;;;;;;5091098;28;20107;-76
2022/11/17 08:14:48;;;;;;;35.42;17.00;;;4.70;99.90;;;;;;5085923;28;20062;-76
2022/11/17 08:17:14;;;;;;;37.72;18.08;;;4.80;99.90;;;;;;5085830;28;20441;-75
2022/11/17 08:19:40;;;;;;;36.75;17.17;;;4.70;99.90;;;;;;5088565;28;20032;-72
2022/11/17 08:22:05;;;;;;;32.83;15.80;;;4.60;99.90;;;;;;5092810;28;20052;-74
2022/11/17 08:24:31;;;;;;;38.33;16.25;;;4.60;99.90;;;;;;5084764;28;20135;-78
2022/11/17 08:26:57;;;;;;;33.38;15.48;;;4.60;99.90;;;;;;5085179;28;20067;-75
2022/11/17 08:29:23;;;;;;;33.97;15.23;;;4.60;99.90;;;;;;5088133;28;20093;-74
2022/11/17 08:31:49;;;;;;;28.85;13.57;;;4.60;99.90;;;;;;5088699;28;20016;-72
2022/11/17 08:34:15;;;;;;;28.70;11.60;;;4.60;99.90;;;;;;5102904;28;20038;-75
2022/11/17 08:36:41;;;;;;;23.17;11.40;;;4.60;99.90;;;;;;5100887;28;20381;-73
2022/11/17 08:39:07;;;;;;;24.60;10.23;;;4.60;99.90;;;;;;5099019;28;20023;-76
2022/11/17 08:41:33;;;;;;;34.58;16.80;;;4.60;99.90;;;;;;5097972;28;20029;-76
2022/11/17 08:43:58;;;;;;;36.13;17.20;;;4.50;99.90;;;;;;5092798;28;20040;-76
2022/11/17 08:46:25;;;;;;;38.17;17.35;;;4.50;99.90;;;;;;5092335;28;20059;-78
2022/11/17 08:48:51;;;;;;;26.48;12.85;;;4.50;99.90;;;;;;5096816;28;20487;-75
2022/11/17 08:51:16;;;;;;;34.65;16.15;;;4.60;99.90;;;;;;5095563;28;20028;-75
2022/11/17 08:53:42;;;;;;;32.28;15.57;;;4.60;99.90;;;;;;5094662;28;20108;-77
2022/11/17 08:56:10;;;;;;;30.67;13.95;;;4.50;99.90;;;;;;5087881;28;20046;-74
2022/11/17 08:58:42;;;;;;;28.77;14.70;;;4.60;99.90;;;;;;5096621;28;20027;-77
2022/11/17 09:01:17;;;;;;;31.83;15.30;;;4.50;99.90;;;;;;5096543;28;20111;-77
2022/11/17 09:03:45;;;;;;;26.98;12.32;;;4.50;99.90;;;;;;5087503;28;20035;-80
2022/11/17 09:06:12;;;;;;;30.50;15.00;;;4.50;99.90;;;;;;5087026;28;20037;-74
2022/11/17 09:08:38;;;;;;;31.27;14.25;;;4.50;99.90;;;;;;5103945;28;20085;-75
2022/11/17 09:11:06;;;;;;;33.78;14.82;;;4.50;99.90;;;;;;5095555;28;20411;-75
2022/11/17 09:13:33;;;;;;;30.90;14.35;;;4.50;99.90;;;;;;5086102;28;20021;-74
2022/11/17 09:16:05;;;;;;;19.55;8.13;;;4.40;99.90;;;;;;5085176;28;20024;-76
2022/11/17 09:18:31;;;;;;;23.88;10.88;;;4.50;99.90;;;;;;5084763;28;20111;-76
2022/11/17 09:21:05;;;;;;;19.05;8.02;;;4.40;99.90;;;;;;5084271;28;20052;-72
2022/11/17 09:23:31;;;;;;;15.95;7.25;;;4.40;99.90;;;;;;5087923;28;20443;-77
2022/11/17 09:26:05;;;;;;;24.02;11.60;;;4.50;99.90;;;;;;5096712;28;20059;-80
2022/11/17 09:28:31;;;;;;;21.67;10.80;;;4.40;99.90;;;;;;5093160;28;20032;-75
2022/11/17 09:30:57;;;;;;;22.05;9.25;;;4.40;99.90;;;;;;5101273;28;20097;-75
2022/11/17 09:33:22;;;;;;;24.65;11.48;;;4.50;99.90;;;;;;5092003;28;20423;-73
2022/11/17 09:35:57;;;;;;;21.33;10.55;;;4.40;99.90;;;;;;5083851;28;20039;-76
2022/11/17 09:38:22;;;;;;;21.13;8.40;;;4.60;99.90;;;;;;5084273;28;20034;-78
2022/11/17 09:40:55;;;;;;;22.35;10.48;;;4.40;99.90;;;;;;5086454;28;20088;-78
2022/11/17 09:43:33;;;;;;;17.73;8.52;;;4.40;99.90;;;;;;5086366;28;20036;-74
2022/11/17 09:46:12;;;;;;;22.33;10.85;;;4.40;99.90;;;;;;5089681;28;20408;-77
2022/11/17 09:48:44;;;;;;;14.40;5.63;;;4.40;99.90;;;;;;5089214;28;20039;-80
2022/11/17 09:51:15;;;;;;;16.13;8.45;;;4.40;99.90;;;;;;5084725;28;20039;-75
2022/11/17 09:54:12;;;;;;;28.42;12.30;;;4.40;99.90;;;;;;5084118;28;20028;-77
2022/11/17 09:56:39;;;;;;;22.33;10.05;;;4.40;99.90;;;;;;5086119;28;20552;-76
2022/11/17 09:59:11;;;;;;;28.40;11.80;;;4.40;99.90;;;;;;5098572;28;20021;-76
2022/11/17 10:01:36;;;;;;;16.67;7.03;;;4.40;99.90;;;;;;5088649;28;20025;-80
2022/11/17 10:04:10;;;;;;;25.83;11.75;;;4.50;99.90;;;;;;5088097;28;20028;-76
2022/11/17 10:06:36;;;;;;;23.52;8.43;;;4.50;99.90;;;;;;5092201;28;20055;-75
2022/11/17 10:09:28;;;;;;;18.05;6.65;;;4.50;99.90;;;;;;5093045;28;20076;-75
2022/11/17 10:12:01;;;;;;;16.38;7.97;;;4.50;99.90;;;;;;5088727;28;20043;-81
2022/11/17 10:14:28;;;;;;;23.90;9.70;;;4.60;99.90;;;;;;5087797;28;20039;-76
2022/11/17 10:16:57;;;;;;;17.05;7.50;;;4.50;99.90;;;;;;5087836;28;20040;-75
2022/11/17 10:19:36;;;;;;;20.83;10.02;;;4.50;99.90;;;;;;5083591;28;20107;-78
2022/11/17 10:22:02;;;;;;;22.02;11.23;;;4.40;99.90;;;;;;5099263;28;20055;-75
2022/11/17 10:24:34;;;;;;;11.68;4.40;;;4.50;99.90;;;;;;5083512;28;20025;-77
2022/11/17 10:27:01;;;;;;;24.88;12.25;;;4.60;99.90;;;;;;5101627;28;20029;-75
2022/11/17 10:29:27;;;;;;;10.82;5.43;;;4.50;99.90;;;;;;5091253;28;20031;-76
2022/11/17 10:31:53;;;;;;;14.45;7.20;;;4.50;99.90;;;;;;5090092;28;20082;-75
2022/11/17 10:34:37;;;;;;;21.20;10.35;;;4.60;99.90;;;;;;5089708;28;20419;-77
2022/11/17 10:37:04;;;;;;;23.48;10.23;;;4.50;99.90;;;;;;5111506;28;20085;-77
2022/11/17 10:39:36;;;;;;;20.50;10.35;;;4.60;99.90;;;;;;5091450;28;20049;-75
2022/11/17 10:42:20;;;;;;;17.75;7.47;;;4.50;99.90;;;;;;5092598;28;20717;-76
2022/11/17 10:44:50;;;;;;;21.00;9.55;;;4.50;99.90;;;;;;5092339;28;20039;-76
2022/11/17 10:47:35;;;;;;;23.20;9.57;;;4.60;99.90;;;;;;5093095;28;20028;-72
2022/11/17 10:50:20;;;;;;;13.43;7.10;;;4.60;99.90;;;;;;5091513;28;20067;-79
2022/11/17 10:52:46;;;;;;;15.10;6.25;;;4.60;99.90;;;;;;5093112;28;20024;-76
2022/11/17 10:55:35;;;;;;;18.90;8.88;;;4.60;99.90;;;;;;5093160;28;20032;-74
2022/11/17 10:58:23;;;;;;;18.77;9.13;;;4.60;99.90;;;;;;5093012;28;20036;-76
2022/11/17 11:00:57;;;;;;;14.55;6.25;;;4.60;99.90;;;;;;5090593;28;20044;-75
2022/11/17 11:03:25;;;;;;;;;;;4.60;99.90;;;;;;5091178;28;20025;-73
2022/11/17 11:06:23;;;;;;;13.80;6.15;;;4.60;99.90;;;;;;5088163;28;20019;-75
2022/11/17 11:08:51;;;;;;;14.75;5.95;;;4.60;99.90;;;;;;5083080;28;20059;-75
2022/11/17 11:11:47;;;;;;;20.20;8.75;;;4.70;99.90;;;;;;5088931;28;20064;-75
2022/11/17 11:14:27;;;;;;;18.90;8.45;;;4.60;99.90;;;;;;5086839;28;20093;-75
2022/11/17 11:16:54;;;;;;;11.13;5.43;;;4.60;99.90;;;;;;5087097;28;20089;-75
2022/11/17 11:19:20;;;;;;;21.00;9.52;;;4.70;99.90;;;;;;5084996;28;20025;-75
2022/11/17 11:22:26;;;;;;;18.10;7.65;;;4.70;99.90;;;;;;5085811;28;20067;-77
2022/11/17 11:25:17;;;;;;;17.27;6.93;;;4.70;99.90;;;;;;5036108;28;20051;-75
2022/11/17 11:27:54;;;;;;;15.73;6.85;;;4.70;99.90;;;;;;5099583;28;20149;-74
2022/11/17 11:30:20;;;;;;;18.00;8.23;;;4.70;99.90;;;;;;5094645;28;20020;-76
2022/11/17 11:32:52;;;;;;;14.85;6.53;;;4.70;99.90;;;;;;5097029;28;20035;-77
2022/11/17 11:35:29;;;;;;;19.08;8.25;;;4.70;99.90;;;;;;5105739;28;20028;-75
2022/11/17 11:38:33;;;;;;;18.48;8.70;;;4.70;99.90;;;;;;5102638;28;20025;-74
2022/11/17 11:41:40;;;;;;;16.30;8.07;;;4.80;99.90;;;;;;5045267;28;20956;-73
2022/11/17 11:44:15;;;;;;;11.68;5.10;;;4.80;99.90;;;;;;5014973;28;20069;-76
2022/11/17 11:47:03;;;;;;;15.32;7.72;;;4.80;99.90;;;;;;5091904;28;20051;-75
2022/11/17 11:49:29;;;;;;;13.88;6.80;;;4.80;99.90;;;;;;5096709;28;20037;-74
2022/11/17 11:51:56;;;;;;;15.48;7.50;;;4.90;99.90;;;;;;5104095;28;20647;-75
2022/11/17 11:54:38;;;;;;;16.60;6.90;;;4.90;99.90;;;;;;5093768;28;20032;-75
2022/11/17 11:57:07;;;;;;;10.07;4.78;;;4.90;99.90;;;;;;5102129;28;20039;-76
2022/11/17 11:59:51;;;;;;;12.55;6.57;;;4.90;99.90;;;;;;5105438;28;20078;-76
2022/11/17 12:02:40;;;;;;;11.98;5.85;;;4.90;99.90;;;;;;5106817;28;20034;-78
2022/11/17 12:05:13;;;;;;;15.38;7.00;;;4.90;99.90;;;;;;5091597;28;20055;-77
2022/11/17 12:07:43;;;;;;;14.52;7.18;;;5.00;99.90;;;;;;5085331;28;20029;-80
2022/11/17 12:10:17;;;;;;;16.00;7.30;;;5.00;99.90;;;;;;5102809;28;20062;-76
2022/11/17 12:12:44;;;;;;;;;;;4.90;99.90;;;;;;5096997;28;20024;-76
2022/11/17 12:15:19;;;;;;;14.45;7.65;;;5.00;99.90;;;;;;5088798;28;19909;-81
2022/11/17 12:18:10;;;;;;;10.75;4.70;;;5.00;99.90;;;;;;5087738;28;20032;-74
2022/11/17 12:20:35;;;;;;;11.55;6.00;;;5.00;99.90;;;;;;5085303;28;20035;-73
2022/11/17 12:23:25;;;;;;;14.15;7.13;;;5.00;99.90;;;;;;5092815;28;20028;-75
2022/11/17 12:25:53;;;;;;;14.25;7.00;;;5.00;99.90;;;;;;5086420;28;20048;-75
2022/11/17 12:28:41;;;;;;;13.13;5.45;;;5.00;99.90;;;;;;5089060;28;20093;-76
2022/11/17 12:31:29;;;;;;;15.23;6.70;;;5.00;99.90;;;;;;5094261;28;20064;-77
2022/11/17 12:34:29;;;;;;;6.35;4.00;;;5.00;99.90;;;;;;5085704;28;20032;-75
2022/11/17 12:37:16;;;;;;;9.40;4.72;;;5.00;99.90;;;;;;5092021;28;20032;-75
2022/11/17 12:39:54;;;;;;;11.45;5.65;;;5.10;99.90;;;;;;5092184;28;20047;-74
2022/11/17 12:42:19;;;;;;;13.50;5.25;;;5.10;99.90;;;;;;5105894;28;20035;-74
2022/11/17 12:44:49;;;;;;;10.88;5.93;;;5.20;99.90;;;;;;5095086;28;20032;-74
2022/11/17 12:47:20;;;;;;;10.77;6.10;;;5.10;99.90;;;;;;5084388;28;20025;-74
2022/11/17 12:49:55;;;;;;;12.95;5.95;;;5.10;99.90;;;;;;5084417;28;20024;-74
2022/11/17 12:52:53;;;;;;;14.38;5.45;;;5.10;99.90;;;;;;5084396;28;20053;-75
2022/11/17 12:55:28;;;;;;;10.20;5.70;;;5.10;99.90;;;;;;5085331;28;20055;-72
2022/11/17 12:58:34;;;;;;;9.85;4.22;;;5.10;99.90;;;;;;5085743;28;20050;-74
2022/11/17 13:01:05;;;;;;;5.97;2.55;;;5.10;99.90;;;;;;5086147;28;20059;-79
2022/11/17 13:03:50;;;;;;;10.02;4.93;;;5.10;99.90;;;;;;5085253;28;20032;-76
2022/11/17 13:06:17;;;;;;;8.70;4.45;;;5.10;99.90;;;;;;5085603;28;20055;-75
2022/11/17 13:08:55;;;;;;;12.65;6.13;;;5.10;99.90;;;;;;5084161;28;20381;-75
2022/11/17 13:11:21;;;;;;;11.73;6.03;;;5.10;99.90;;;;;;5084878;28;20025;-75
2022/11/17 13:13:47;;;;;;;12.23;5.53;;;5.10;99.90;;;;;;5105309;28;20043;-76
2022/11/17 13:16:20;;;;;;;12.60;5.75;;;5.10;99.90;;;;;;5092048;28;20044;-73
2022/11/17 13:18:47;;;;;;;15.15;6.13;;;5.10;99.90;;;;;;5087398;28;20033;-75
2022/11/17 13:21:31;;;;;;;12.27;6.00;;;5.10;99.90;;;;;;5081848;28;20036;-76
2022/11/17 13:23:59;;;;;;;10.07;5.65;;;5.10;99.90;;;;;;5095461;28;20055;-74
2022/11/17 13:26:36;;;;;;;10.50;5.05;;;5.10;99.90;;;;;;5087300;28;20438;-76
2022/11/17 13:29:06;;;;;;;12.75;5.57;;;5.10;99.90;;;;;;5083918;28;20040;-73
2022/11/17 13:31:32;;;;;;;12.27;5.85;;;5.10;99.90;;;;;;5088349;28;20472;-78
2022/11/17 13:34:16;;;;;;;8.48;4.30;;;5.00;99.90;;;;;;5099536;28;20024;-76